Time;durP1;ratioP1;P1;durP2;ratioP2;P2;SDS_P1;SDS_P2;PMS_P1;PMS_P2;Temp;Humidity;BMP_temperature;BMP_pressure;BME280_temperature;BME280_humidity;BME280_pressure;Samples;Min_cycle;Max_cycle;Signal;HPM_P1;HPM_P2
2021/06/03 00:00:02;;;;;;;4.15;2.40;;;;;;;21.29;48.16;101672.28;143715;634;47006;-69
2021/06/03 00:02:28;;;;;;;3.00;2.40;;;;;;;21.31;48.38;101677.47;143725;566;46006;-70
2021/06/03 00:04:55;;;;;;;2.87;2.60;;;;;;;21.36;48.55;101677.56;143727;583;46006;-68
2021/06/03 00:07:21;;;;;;;4.85;2.33;;;;;;;21.35;48.87;101671.31;143726;961;46010;-69
2021/06/03 00:09:48;;;;;;;4.05;2.80;;;;;;;21.36;49.22;101672.94;143725;877;47004;-68
2021/06/03 00:12:14;;;;;;;3.10;2.80;;;;;;;21.40;48.81;101673.28;143727;595;46006;-68
2021/06/03 00:14:41;;;;;;;5.07;2.72;;;;;;;21.40;48.69;101678.75;143729;873;47008;-69
2021/06/03 00:17:08;;;;;;;6.30;2.65;;;;;;;21.38;48.35;101667.22;143724;651;47012;-69
2021/06/03 00:19:34;;;;;;;3.97;2.65;;;;;;;21.35;48.18;101670.44;143722;636;46010;-68
2021/06/03 00:22:01;;;;;;;4.43;2.85;;;;;;;21.34;48.60;101668.78;143720;705;46008;-70
2021/06/03 00:24:27;;;;;;;3.00;2.45;;;;;;;21.34;48.67;101657.88;143727;577;47000;-69
2021/06/03 00:26:54;;;;;;;4.43;2.50;;;;;;;21.37;48.24;101665.56;143725;575;46027;-69
2021/06/03 00:29:20;;;;;;;6.55;2.87;;;;;;;21.36;48.13;101669.38;143720;615;47028;-69
2021/06/03 00:31:47;;;;;;;3.53;3.00;;;;;;;21.36;47.97;101667.47;143725;642;46006;-68
2021/06/03 00:34:13;;;;;;;5.45;2.40;;;;;;;21.35;47.47;101671.31;143726;761;46013;-69
2021/06/03 00:36:40;;;;;;;6.35;2.42;;;;;;;21.36;47.20;101666.66;143722;572;46013;-68
2021/06/03 00:39:07;;;;;;;2.40;1.90;;;;;;;21.37;44.95;101671.03;143726;569;46004;-67
2021/06/03 00:41:33;;;;;;;2.92;2.10;;;;;;;21.31;44.95;101667.41;143726;593;46006;-68
2021/06/03 00:44:01;;;;;;;4.22;2.20;;;;;;;21.29;44.71;101666.81;143723;678;47004;-68
2021/06/03 00:46:28;;;;;;;4.62;1.83;;;;;;;21.32;44.80;101670.94;143724;608;46919;-68
2021/06/03 00:48:55;;;;;;;4.10;1.87;;;;;;;21.28;44.74;101675.25;143717;582;47004;-69
2021/06/03 00:51:21;;;;;;;2.35;1.60;;;;;;;21.31;43.71;101675.59;143724;639;46926;-67
2021/06/03 00:53:48;;;;;;;2.05;1.62;;;;;;;21.32;43.05;101673.69;143725;588;46029;-68
2021/06/03 00:56:15;;;;;;;8.05;2.10;;;;;;;21.29;43.87;101680.47;143722;706;47009;-67
2021/06/03 00:58:41;;;;;;;2.30;1.83;;;;;;;21.27;43.67;101688.09;143721;933;49016;-68
2021/06/03 01:01:07;;;;;;;2.67;1.52;;;;;;;21.27;43.29;101687.28;143718;585;46014;-69
2021/06/03 01:03:34;;;;;;;4.28;1.70;;;;;;;21.25;43.49;101692.97;143727;582;46013;-67
2021/06/03 01:06:09;;;;;;;2.20;1.87;;;;;;;21.24;44.42;101687.75;143723;585;47011;-67
2021/06/03 01:09:12;;;;;;;3.60;1.90;;;;;;;21.22;44.43;101693.44;143723;756;46010;-69
2021/06/03 01:12:04;;;;;;;2.12;1.90;;;;;;;21.24;44.03;101685.03;143727;749;46005;-68
2021/06/03 01:14:37;;;;;;;2.78;1.77;;;;;;;21.25;44.44;101690.25;143721;598;47000;-69
2021/06/03 01:17:05;;;;;;;2.42;1.90;;;;;;;21.18;44.93;101687.66;143722;572;46012;-68
2021/06/03 01:19:35;;;;;;;2.00;1.80;;;;;;;21.12;44.94;101685.91;143716;600;46009;-68
2021/06/03 01:22:18;;;;;;;3.35;1.60;;;;;;;21.11;44.77;101688.91;143724;575;47008;-68
2021/06/03 01:24:47;;;;;;;4.25;1.85;;;;;;;21.08;44.51;101690.22;143727;572;46008;-67
2021/06/03 01:27:17;;;;;;;6.40;2.05;;;;;;;21.09;43.69;101691.03;143724;597;46010;-67
2021/06/03 01:30:32;;;;;;;2.75;2.10;;;;;;;21.12;43.41;101687.81;143717;592;47006;-68
2021/06/03 01:33:04;;;;;;;3.50;1.85;;;;;;;21.10;43.22;101687.25;143727;568;46920;-67
2021/06/03 01:35:38;;;;;;;2.50;1.62;;;;;;;21.11;43.45;101694.34;143722;621;47007;-68
2021/06/03 01:38:07;;;;;;;2.53;1.87;;;;;;;21.07;44.16;101685.84;143710;589;46016;-70
2021/06/03 01:40:36;;;;;;;5.40;2.00;;;;;;;20.99;44.82;101686.22;143726;579;46004;-65
2021/06/03 01:43:06;;;;;;;2.58;1.90;;;;;;;20.94;45.73;101680.66;143728;611;46007;-65
2021/06/03 01:45:33;;;;;;;6.85;2.20;;;;;;;20.92;45.90;101691.84;143727;567;46006;-65
2021/06/03 01:48:00;;;;;;;3.83;2.20;;;;;;;20.92;46.82;101691.00;143720;682;46023;-65
2021/06/03 01:50:27;;;;;;;3.85;2.00;;;;;;;20.85;46.67;101692.00;143725;586;47002;-65
2021/06/03 01:52:54;;;;;;;5.93;2.28;;;;;;;20.81;47.15;101690.00;143728;587;46006;-65
2021/06/03 01:55:22;;;;;;;2.65;2.10;;;;;;;20.81;47.74;101690.00;143722;586;46017;-65
2021/06/03 01:57:49;;;;;;;7.47;2.62;;;;;;;20.81;47.36;101696.28;143725;629;46010;-65
2021/06/03 02:00:19;;;;;;;4.75;2.33;;;;;;;20.81;47.03;101692.72;143725;714;46004;-65
2021/06/03 02:02:46;;;;;;;5.82;2.45;;;;;;;20.80;47.00;101693.81;143726;645;46008;-65
2021/06/03 02:05:14;;;;;;;3.25;2.20;;;;;;;20.79;47.28;101694.87;143724;911;48000;-65
2021/06/03 02:07:40;;;;;;;6.05;3.10;;;;;;;20.75;46.87;101700.81;143724;844;46012;-65
2021/06/03 02:10:08;;;;;;;4.30;2.25;;;;;;;20.71;46.62;101698.78;143717;585;48010;-65
2021/06/03 02:12:42;;;;;;;2.70;2.10;;;;;;;20.71;46.83;101685.13;143725;664;46007;-65
2021/06/03 02:15:09;;;;;;;2.53;2.03;;;;;;;20.71;47.15;101704.25;143724;602;47002;-69
2021/06/03 02:17:40;;;;;;;3.22;2.30;;;;;;;20.68;47.14;101694.63;143725;603;47010;-69
2021/06/03 02:20:20;;;;;;;3.22;2.03;;;;;;;20.61;46.33;101696.69;143723;595;47004;-65
2021/06/03 02:22:49;;;;;;;4.22;2.60;;;;;;;20.59;46.59;101698.81;143724;588;47000;-65
2021/06/03 02:25:16;;;;;;;3.47;2.37;;;;;;;20.57;45.90;101704.50;143719;572;47004;-65
2021/06/03 02:27:44;;;;;;;4.72;2.20;;;;;;;20.54;46.54;101698.72;143722;620;47008;-65
2021/06/03 02:30:12;;;;;;;3.47;2.17;;;;;;;20.52;46.43;101706.31;143723;595;47006;-65
2021/06/03 02:32:39;;;;;;;2.62;2.20;;;;;;;20.50;46.26;101701.09;143725;703;47006;-64
2021/06/03 02:35:10;;;;;;;2.87;2.20;;;;;;;20.46;46.79;101705.38;143725;619;47002;-65
2021/06/03 02:37:41;;;;;;;3.00;2.20;;;;;;;20.37;46.39;101712.28;143723;663;47012;-65
2021/06/03 02:40:15;;;;;;;2.87;2.30;;;;;;;20.41;46.90;101705.25;143723;788;47932;-65
2021/06/03 02:42:44;;;;;;;7.60;5.03;;;;;;;20.42;46.52;101706.91;143724;951;46006;-66
2021/06/03 02:45:14;;;;;;;6.20;4.40;;;;;;;20.38;47.41;101705.75;143725;569;47004;-65
2021/06/03 02:47:41;;;;;;;3.90;3.42;;;;;;;20.35;48.29;101717.97;143724;573;47012;-65
2021/06/03 02:50:13;;;;;;;4.97;3.85;;;;;;;20.27;47.78;101710.97;143722;975;47004;-65
2021/06/03 02:52:40;;;;;;;5.47;4.25;;;;;;;20.28;48.33;101709.91;143721;871;47006;-65
2021/06/03 02:55:11;;;;;;;7.68;4.10;;;;;;;20.24;47.99;101719.62;143725;696;47006;-66
2021/06/03 02:57:38;;;;;;;4.78;3.35;;;;;;;20.18;48.20;101717.87;143725;983;47008;-65
2021/06/03 03:00:11;;;;;;;4.70;3.33;;;;;;;20.16;47.76;101717.28;143722;915;47012;-66
2021/06/03 03:02:38;;;;;;;5.70;2.72;;;;;;;20.17;46.88;101724.41;143726;696;47006;-65
2021/06/03 03:05:06;;;;;;;5.15;2.05;;;;;;;20.13;46.91;101718.59;143725;792;47004;-65
2021/06/03 03:07:34;;;;;;;3.92;2.22;;;;;;;20.10;45.89;101713.62;143724;584;47012;-65
2021/06/03 03:10:03;;;;;;;4.40;1.83;;;;;;;20.09;45.78;101724.75;143723;607;47010;-65
2021/06/03 03:12:30;;;;;;;2.60;1.98;;;;;;;20.06;45.34;101723.34;143727;983;46004;-66
2021/06/03 03:14:56;;;;;;;5.70;2.30;;;;;;;20.02;45.60;101730.34;143724;979;47002;-65
2021/06/03 03:17:23;;;;;;;6.87;3.20;;;;;;;20.11;45.50;101728.94;143729;566;46010;-65
2021/06/03 03:19:49;;;;;;;3.78;2.15;;;;;;;20.17;46.62;101727.12;143722;800;46010;-65
2021/06/03 03:22:16;;;;;;;5.05;1.98;;;;;;;20.18;46.02;101733.41;143726;898;46006;-65
2021/06/03 03:24:42;;;;;;;2.58;1.92;;;;;;;20.21;45.05;101727.47;143727;669;47006;-64
2021/06/03 03:27:09;;;;;;;8.23;2.45;;;;;;;20.26;46.04;101736.59;143724;983;47013;-65
2021/06/03 03:29:35;;;;;;;6.75;2.45;;;;;;;20.23;46.30;101733.53;143723;900;47004;-67
2021/06/03 03:32:02;;;;;;;5.53;2.65;;;;;;;20.21;47.61;101736.47;143723;573;47008;-66
2021/06/03 03:34:28;;;;;;;4.65;3.62;;;;;;;20.24;46.07;101736.00;143725;568;47004;-69
2021/06/03 03:36:55;;;;;;;6.00;4.15;;;;;;;20.24;46.62;101735.19;143724;572;47010;-69
2021/06/03 03:39:22;;;;;;;6.55;4.60;;;;;;;20.25;45.86;101740.41;143720;980;47004;-70
2021/06/03 03:41:48;;;;;;;7.25;3.97;;;;;;;20.32;45.15;101750.38;143724;935;47008;-69
2021/06/03 03:44:15;;;;;;;5.62;3.62;;;;;;;20.33;45.48;101741.94;143725;616;47004;-69
2021/06/03 03:46:41;;;;;;;3.53;3.05;;;;;;;20.32;45.94;101750.38;143725;569;47010;-70
2021/06/03 03:49:07;;;;;;;4.57;3.40;;;;;;;20.33;45.14;101750.12;143725;573;47002;-69
2021/06/03 03:51:34;;;;;;;3.80;2.80;;;;;;;20.37;45.08;101754.03;143726;588;47006;-69
2021/06/03 03:54:00;;;;;;;8.77;2.97;;;;;;;20.34;45.94;101756.41;143724;681;48004;-69
2021/06/03 03:56:27;;;;;;;6.97;3.00;;;;;;;20.28;46.14;101758.22;143720;568;48916;-69
2021/06/03 03:58:53;;;;;;;4.32;2.67;;;;;;;20.22;46.50;101765.41;143723;567;47004;-69
2021/06/03 04:01:20;;;;;;;7.18;3.33;;;;;;;20.22;46.68;101770.88;143724;572;47002;-69
2021/06/03 04:03:46;;;;;;;5.70;3.47;;;;;;;20.19;47.07;101768.66;143725;752;47004;-69
2021/06/03 04:06:12;;;;;;;4.75;3.65;;;;;;;20.21;46.91;101768.41;143723;575;47010;-69
2021/06/03 04:08:39;;;;;;;7.82;3.95;;;;;;;20.21;47.30;101771.12;143722;973;47004;-71
2021/06/03 04:11:05;;;;;;;5.15;2.92;;;;;;;20.26;47.49;101777.53;143726;573;46009;-69
2021/06/03 04:13:32;;;;;;;6.32;3.45;;;;;;;20.28;46.72;101777.31;143725;650;47004;-69
2021/06/03 04:15:58;;;;;;;5.12;3.47;;;;;;;20.27;46.59;101767.47;143728;925;46021;-69
2021/06/03 04:18:24;;;;;;;4.45;2.90;;;;;;;20.30;47.12;101780.59;143722;859;47006;-69
2021/06/03 04:20:51;;;;;;;10.68;3.28;;;;;;;20.38;46.51;101782.97;143724;879;47008;-69
2021/06/03 04:23:18;;;;;;;9.77;3.37;;;;;;;20.48;45.13;101781.53;143724;572;47004;-69
2021/06/03 04:25:44;;;;;;;3.90;2.70;;;;;;;20.59;45.71;101786.16;143725;980;47006;-69
2021/06/03 04:28:10;;;;;;;9.02;3.28;;;;;;;20.65;46.16;101789.81;143725;975;47006;-69
2021/06/03 04:30:45;;;;;;;8.63;3.00;;;;;;;20.69;45.87;101797.28;143724;572;47006;-69
2021/06/03 04:33:21;;;;;;;6.30;2.78;;;;;;;20.72;46.72;101799.53;143734;910;45009;-70
2021/06/03 04:36:01;;;;;;;5.80;3.10;;;;;;;20.75;47.41;101800.94;143726;575;46010;-70
2021/06/03 04:38:28;;;;;;;6.75;3.17;;;;;;;20.79;46.19;101802.16;143728;637;47004;-70
2021/06/03 04:40:55;;;;;;;3.92;2.22;;;;;;;20.85;46.60;101803.94;143725;983;47007;-69
2021/06/03 04:43:21;;;;;;;2.85;2.03;;;;;;;20.92;46.05;101803.81;143725;599;47006;-69
2021/06/03 04:45:48;;;;;;;5.43;2.45;;;;;;;20.98;45.42;101802.84;143723;567;47010;-69
2021/06/03 04:48:15;;;;;;;5.60;2.60;;;;;;;21.04;45.52;101810.06;143722;678;47005;-69
2021/06/03 04:50:42;;;;;;;5.30;2.12;;;;;;;21.12;46.07;101808.84;143726;979;46008;-69
2021/06/03 04:53:09;;;;;;;4.18;2.30;;;;;;;21.18;44.18;101810.59;143727;891;47004;-68
2021/06/03 04:55:36;;;;;;;3.45;2.40;;;;;;;21.25;44.03;101806.91;143725;699;47010;-68
2021/06/03 04:58:05;;;;;;;7.43;2.60;;;;;;;21.32;44.04;101823.97;143723;971;47006;-69
2021/06/03 05:00:34;;;;;;;5.72;3.00;;;;;;;21.39;44.09;101824.66;143726;973;46008;-68
2021/06/03 05:03:03;;;;;;;4.82;3.15;;;;;;;21.44;44.57;101830.22;143726;982;47004;-68
2021/06/03 05:05:30;;;;;;;4.65;3.08;;;;;;;21.49;42.70;101824.84;143722;586;47010;-68
2021/06/03 05:07:56;;;;;;;8.43;2.75;;;;;;;21.54;43.17;101831.47;143727;572;46023;-68
2021/06/03 05:10:24;;;;;;;9.18;3.70;;;;;;;21.57;44.09;101837.28;143725;577;47002;-68
2021/06/03 05:12:51;;;;;;;7.32;3.35;;;;;;;21.62;42.91;101833.87;143724;981;47002;-68
2021/06/03 05:15:19;;;;;;;5.72;3.42;;;;;;;21.68;42.86;101840.25;143727;696;47010;-68
2021/06/03 05:17:47;;;;;;;7.10;3.65;;;;;;;21.72;43.01;101838.66;143723;625;47012;-68
2021/06/03 05:20:18;;;;;;;5.47;3.67;;;;;;;21.80;43.13;101841.81;143725;983;47006;-68
2021/06/03 05:22:45;;;;;;;7.62;3.10;;;;;;;21.84;42.16;101842.16;143725;972;47004;-69
2021/06/03 05:25:15;;;;;;;8.25;4.10;;;;;;;21.87;42.67;101846.31;143723;767;48010;-68
2021/06/03 05:27:42;;;;;;;5.93;3.33;;;;;;;21.91;42.95;101837.34;143726;597;46004;-69
2021/06/03 05:30:11;;;;;;;6.03;3.70;;;;;;;22.02;42.52;101843.81;143726;570;46008;-68
2021/06/03 05:32:38;;;;;;;6.57;3.55;;;;;;;22.07;42.08;101832.97;143730;582;46010;-67
2021/06/03 05:35:06;;;;;;;6.50;3.67;;;;;;;22.14;41.48;101835.53;143726;570;47010;-67
2021/06/03 05:37:33;;;;;;;8.38;3.40;;;;;;;22.21;41.43;101838.09;143723;567;47008;-67
2021/06/03 05:40:00;;;;;;;5.35;3.28;;;;;;;22.27;40.74;101837.13;143725;758;47007;-68
2021/06/03 05:42:26;;;;;;;6.80;3.12;;;;;;;22.36;40.86;101838.31;143724;977;47004;-68
2021/06/03 05:44:53;;;;;;;6.82;2.65;;;;;;;22.38;39.97;101847.13;143724;567;47010;-68
2021/06/03 05:47:19;;;;;;;6.93;2.67;;;;;;;22.43;39.56;101848.31;143723;580;47005;-68
2021/06/03 05:49:47;;;;;;;8.40;2.60;;;;;;;22.47;39.96;101838.53;143723;965;47006;-68
2021/06/03 05:52:13;;;;;;;7.43;2.85;;;;;;;22.53;40.09;101842.97;143725;737;47006;-68
2021/06/03 05:54:40;;;;;;;10.80;4.97;;;;;;;22.56;41.78;101843.31;143727;591;47009;-68
2021/06/03 05:57:07;;;;;;;10.27;5.40;;;;;;;22.65;42.55;101849.19;143723;572;47006;-68
2021/06/03 05:59:33;;;;;;;8.50;4.10;;;;;;;22.66;40.94;101841.78;143724;590;46008;-68
2021/06/03 06:02:05;;;;;;;7.05;3.78;;;;;;;22.64;40.82;101849.44;143724;941;47004;-68
2021/06/03 06:07:16;;;;;;;10.23;5.30;;;;;;;22.75;42.41;101848.50;143724;606;47014;-68
2021/06/03 06:09:43;;;;;;;9.27;5.75;;;;;;;22.78;42.97;101847.97;143727;575;46007;-68
2021/06/03 06:12:10;;;;;;;8.73;5.55;;;;;;;22.87;43.16;101853.84;143724;573;47002;-67
2021/06/03 06:14:36;;;;;;;7.93;5.60;;;;;;;22.94;43.52;101850.94;143725;572;47010;-67
2021/06/03 06:17:03;;;;;;;12.00;5.30;;;;;;;22.97;42.84;101850.41;143722;607;47007;-68
2021/06/03 06:19:31;;;;;;;10.75;5.53;;;;;;;22.92;42.60;101859.41;143725;701;47006;-67
2021/06/03 06:21:57;;;;;;;9.05;5.43;;;;;;;22.91;42.61;101846.78;143726;632;47002;-67
2021/06/03 06:24:24;;;;;;;9.43;5.20;;;;;;;23.00;42.84;101853.50;143725;580;47012;-66
2021/06/03 06:26:50;;;;;;;8.15;5.32;;;;;;;23.13;42.35;101854.19;143723;577;47004;-66
2021/06/03 06:29:17;;;;;;;8.10;5.45;;;;;;;23.19;41.49;101857.78;143727;717;47006;-67
2021/06/03 06:31:43;;;;;;;9.00;5.25;;;;;;;23.22;41.17;101849.09;143726;597;47006;-67
2021/06/03 06:34:10;;;;;;;10.48;5.72;;;;;;;23.25;41.46;101852.16;143724;731;47011;-66
2021/06/03 06:36:36;;;;;;;8.80;4.97;;;;;;;23.36;41.47;101853.09;143725;572;47004;-67
2021/06/03 06:39:06;;;;;;;10.43;5.35;;;;;;;23.40;41.13;101854.25;143722;566;47008;-66
2021/06/03 06:41:32;;;;;;;9.45;5.32;;;;;;;23.49;41.15;101859.25;143724;706;47002;-69
2021/06/03 06:43:59;;;;;;;6.68;4.53;;;;;;;23.55;41.36;101856.31;143723;577;47008;-68
2021/06/03 06:46:25;;;;;;;8.20;4.97;;;;;;;23.64;41.30;101853.09;143723;738;47007;-68
2021/06/03 06:48:51;;;;;;;7.68;4.75;;;;;;;23.70;41.48;101857.56;143722;591;47006;-67
2021/06/03 06:51:18;;;;;;;6.68;5.25;;;;;;;23.61;40.51;101857.19;143728;600;46006;-68
2021/06/03 06:53:44;;;;;;;8.27;5.00;;;;;;;23.58;41.69;101854.97;143723;569;47012;-67
2021/06/03 06:56:12;;;;;;;12.05;4.70;;;;;;;23.51;40.91;101863.41;143725;592;47008;-68
2021/06/03 06:58:39;;;;;;;7.65;5.18;;;;;;;23.56;41.19;101855.22;143724;746;47008;-67
2021/06/03 07:01:05;;;;;;;9.63;4.97;;;;;;;23.61;41.31;101851.72;143724;609;47004;-65
2021/06/03 07:03:32;;;;;;;9.35;6.82;;;;;;;23.75;41.37;101854.84;143724;567;47008;-66
2021/06/03 07:05:58;;;;;;;10.23;5.30;;;;;;;23.88;41.00;101848.94;143721;580;47006;-66
2021/06/03 07:08:24;;;;;;;10.95;5.20;;;;;;;23.89;40.79;101856.09;143726;632;47008;-65
2021/06/03 07:10:54;;;;;;;9.70;5.40;;;;;;;23.91;42.72;101855.81;143726;587;47004;-66
2021/06/03 07:13:20;;;;;;;7.22;4.68;;;;;;;23.81;43.77;101856.56;143723;566;47008;-66
2021/06/03 07:15:47;;;;;;;8.07;4.93;;;;;;;23.66;43.28;101859.97;143722;607;48004;-66
2021/06/03 07:18:13;;;;;;;11.25;5.28;;;;;;;23.62;43.55;101853.38;143724;586;47009;-66
2021/06/03 07:20:40;;;;;;;10.15;4.80;;;;;;;23.64;43.60;101853.09;143724;566;47004;-66
2021/06/03 07:23:06;;;;;;;9.63;4.57;;;;;;;23.64;43.55;101853.94;143723;588;47012;-66
2021/06/03 07:25:38;;;;;;;7.20;4.30;;;;;;;23.55;43.98;101861.81;143723;588;47004;-65
2021/06/03 07:28:06;;;;;;;7.03;4.07;;;;;;;23.54;43.59;101854.66;143725;615;47006;-65
2021/06/03 07:30:33;;;;;;;8.70;4.00;;;;;;;23.45;43.52;101856.19;143725;573;47006;-65
2021/06/03 07:33:00;;;;;;;8.55;4.03;;;;;;;23.51;42.77;101862.56;143725;634;47012;-66
2021/06/03 07:35:32;;;;;;;6.07;4.57;;;;;;;23.65;42.44;101857.50;143723;593;47004;-65
2021/06/03 07:37:59;;;;;;;8.05;4.03;;;;;;;23.73;42.45;101846.06;143726;661;47006;-65
2021/06/03 07:40:28;;;;;;;7.55;4.03;;;;;;;23.84;41.87;101845.06;143725;626;47004;-65
2021/06/03 07:42:55;;;;;;;10.15;3.85;;;;;;;23.83;42.10;101846.16;143723;757;47010;-65
2021/06/03 07:45:24;;;;;;;6.53;3.75;;;;;;;23.94;42.98;101849.81;143718;593;47004;-65
2021/06/03 07:47:52;;;;;;;6.65;3.75;;;;;;;23.91;42.98;101844.84;143724;579;47008;-66
2021/06/03 07:50:19;;;;;;;6.18;3.83;;;;;;;23.93;43.82;101845.41;143729;692;47002;-66
2021/06/03 07:52:46;;;;;;;5.10;3.90;;;;;;;23.83;43.81;101843.41;143724;574;47010;-65
2021/06/03 07:55:14;;;;;;;8.35;4.00;;;;;;;23.71;44.82;101846.31;143720;706;47005;-66
2021/06/03 07:57:43;;;;;;;6.12;3.78;;;;;;;23.86;44.51;101853.03;143723;737;47008;-66
2021/06/03 08:00:12;;;;;;;5.00;3.97;;;;;;;23.91;44.62;101847.59;143723;582;47004;-65
2021/06/03 08:02:38;;;;;;;5.18;3.62;;;;;;;24.06;43.36;101847.75;143721;589;47008;-64
2021/06/03 08:05:06;;;;;;;8.20;4.15;;;;;;;24.18;43.48;101844.81;143721;630;47004;-64
2021/06/03 08:07:32;;;;;;;8.38;3.83;;;;;;;24.31;43.94;101840.78;143723;640;46008;-65
2021/06/03 08:09:59;;;;;;;6.12;3.65;;;;;;;24.38;43.38;101851.53;143721;682;47019;-65
2021/06/03 08:12:25;;;;;;;10.52;3.75;;;;;;;24.35;43.41;101832.84;143722;576;47010;-65
2021/06/03 08:14:52;;;;;;;5.60;4.35;;;;;;;24.32;44.46;101838.88;143722;576;47004;-65
2021/06/03 08:17:18;;;;;;;7.12;3.85;;;;;;;24.34;44.28;101847.66;143722;573;47009;-65
2021/06/03 08:19:45;;;;;;;6.93;3.72;;;;;;;24.37;44.11;101845.22;143724;574;47004;-66
2021/06/03 08:22:11;;;;;;;7.15;3.62;;;;;;;24.41;43.35;101842.78;143723;577;47012;-66
2021/06/03 08:24:38;;;;;;;6.32;3.22;;;;;;;24.47;43.79;101844.44;143718;587;47006;-67
2021/06/03 08:27:05;;;;;;;5.97;3.28;;;;;;;24.49;43.02;101835.97;143719;591;47006;-66
2021/06/03 08:29:31;;;;;;;3.62;3.15;;;;;;;24.52;43.55;101825.25;143723;663;47004;-66
2021/06/03 08:31:58;;;;;;;4.47;3.25;;;;;;;24.58;43.25;101823.37;143723;599;47012;-66
2021/06/03 08:34:24;;;;;;;5.40;3.40;;;;;;;24.61;43.79;101828.34;143722;662;47006;-66
2021/06/03 08:36:51;;;;;;;4.32;3.33;;;;;;;24.57;43.88;101827.19;143721;592;47006;-65
2021/06/03 08:39:17;;;;;;;3.72;3.05;;;;;;;24.61;43.62;101813.78;143724;600;47006;-66
2021/06/03 08:41:47;;;;;;;3.40;2.72;;;;;;;24.76;43.63;101816.63;143724;585;47008;-67
2021/06/03 08:44:14;;;;;;;4.87;3.92;;;;;;;24.72;43.51;101817.41;143718;589;47022;-65
2021/06/03 08:46:41;;;;;;;5.43;3.37;;;;;;;24.65;43.98;101823.13;143723;617;47006;-65
2021/06/03 08:49:09;;;;;;;6.15;2.85;;;;;;;24.57;43.71;101820.91;143726;584;47004;-65
2021/06/03 08:51:36;;;;;;;3.83;2.58;;;;;;;24.50;42.64;101808.22;143722;572;47010;-65
2021/06/03 08:54:04;;;;;;;11.10;3.40;;;;;;;24.73;43.37;101816.31;143721;578;47005;-66
2021/06/03 08:56:31;;;;;;;8.38;3.55;;;;;;;24.86;43.31;101804.84;143723;579;46008;-66
2021/06/03 08:59:00;;;;;;;5.35;2.83;;;;;;;24.96;42.38;101810.38;143723;572;47004;-64
2021/06/03 09:01:31;;;;;;;3.85;2.80;;;;;;;25.00;42.38;101809.84;143724;726;46008;-64
2021/06/03 09:03:58;;;;;;;4.00;2.58;;;;;;;25.10;41.78;101807.97;143720;570;47006;-64
2021/06/03 09:06:26;;;;;;;3.15;2.30;;;;;;;25.12;40.43;101804.94;143722;771;47006;-64
2021/06/03 09:08:58;;;;;;;4.40;2.50;;;;;;;25.10;41.36;101807.13;143722;578;47004;-65
2021/06/03 09:11:31;;;;;;;7.93;3.25;;;;;;;25.15;41.37;101809.87;143725;568;47008;-64
2021/06/03 09:14:04;;;;;;;3.28;2.45;;;;;;;25.25;41.15;101798.91;143723;566;47004;-65
2021/06/03 09:16:37;;;;;;;3.28;2.58;;;;;;;25.46;39.95;101793.47;143722;570;47008;-64
2021/06/03 09:19:10;;;;;;;3.85;2.90;;;;;;;25.62;39.60;101797.06;143726;696;47002;-64
2021/06/03 09:21:44;;;;;;;3.47;2.30;;;;;;;25.47;38.21;101795.13;143723;592;47010;-64
2021/06/03 09:24:13;;;;;;;4.05;2.05;;;;;;;25.42;38.62;101790.44;143720;577;47006;-64
2021/06/03 09:26:54;;;;;;;5.07;1.98;;;;;;;25.63;38.49;101784.97;143722;572;47006;-64
2021/06/03 09:29:24;;;;;;;5.40;2.90;;;;;;;25.69;37.56;101785.78;143723;726;47006;-64
2021/06/03 09:31:52;;;;;;;3.67;2.22;;;;;;;25.69;38.04;101792.09;143723;636;47010;-65
2021/06/03 09:34:20;;;;;;;3.33;2.12;;;;;;;25.78;38.25;101791.56;143722;575;47006;-64
2021/06/03 09:37:00;;;;;;;3.87;2.15;;;;;;;25.77;37.89;101789.91;143721;581;47008;-65
2021/06/03 09:39:32;;;;;;;4.05;2.17;;;;;;;25.76;37.28;101789.09;143722;624;47002;-65
2021/06/03 09:42:07;;;;;;;5.75;1.98;;;;;;;25.78;36.80;101784.12;143723;572;47012;-65
2021/06/03 09:44:47;;;;;;;3.05;2.17;;;;;;;25.74;36.78;101788.53;143723;756;47010;-65
2021/06/03 09:47:22;;;;;;;3.42;2.05;;;;;;;25.88;36.94;101786.88;143724;585;47006;-64
2021/06/03 09:50:08;;;;;;;3.03;2.10;;;;;;;26.14;36.63;101772.28;143723;584;47006;-65
2021/06/03 09:52:37;;;;;;;4.25;2.10;;;;;;;25.96;35.20;101774.47;143721;573;47010;-65
2021/06/03 09:55:10;;;;;;;4.62;1.90;;;;;;;26.07;35.11;101774.44;143721;574;47004;-65
2021/06/03 09:57:43;;;;;;;2.23;1.80;;;;;;;26.10;33.82;101783.00;143721;632;47008;-64
2021/06/03 10:00:13;;;;;;;4.10;2.08;;;;;;;26.12;34.05;101780.00;143722;664;47004;-63
2021/06/03 10:02:40;;;;;;;5.28;2.30;;;;;;;26.03;33.99;101774.19;143721;619;47010;-64
2021/06/03 10:05:15;;;;;;;4.45;2.00;;;;;;;26.20;34.58;101779.44;143720;651;47004;-64
2021/06/03 10:07:59;;;;;;;3.85;2.03;;;;;;;26.42;34.36;101772.75;143720;581;47009;-65
2021/06/03 10:10:30;;;;;;;6.95;2.33;;;;;;;26.71;33.53;101772.09;143725;634;47004;-65
2021/06/03 10:12:57;;;;;;;5.35;2.10;;;;;;;26.78;32.69;101764.31;143720;591;47012;-64
2021/06/03 10:15:39;;;;;;;3.90;2.10;;;;;;;26.91;32.29;101762.91;143722;573;47005;-63
2021/06/03 10:18:09;;;;;;;7.18;2.17;;;;;;;26.87;32.39;101759.06;143728;713;46008;-62
2021/06/03 10:20:56;;;;;;;3.30;1.90;;;;;;;26.76;31.42;101761.03;143730;656;46004;-61
2021/06/03 10:23:30;;;;;;;7.78;2.55;;;;;;;26.84;32.14;101754.12;143720;574;48009;-64
2021/06/03 10:26:05;;;;;;;2.97;2.22;;;;;;;26.94;33.10;101759.59;143720;575;47006;-64
2021/06/03 10:28:32;;;;;;;3.22;2.10;;;;;;;26.87;33.15;101764.59;143722;577;47006;-64
2021/06/03 10:31:07;;;;;;;2.45;1.65;;;;;;;26.94;33.21;101760.41;143723;580;47004;-64
2021/06/03 10:33:35;;;;;;;3.00;2.10;;;;;;;26.94;33.22;101746.63;143724;566;47010;-64
2021/06/03 10:36:07;;;;;;;3.92;1.83;;;;;;;27.04;33.30;101753.19;143720;600;47004;-64
2021/06/03 10:38:35;;;;;;;5.32;2.30;;;;;;;27.01;33.20;101757.34;143719;596;47002;-64
2021/06/03 10:41:06;;;;;;;3.65;1.73;;;;;;;27.00;33.40;101763.16;143723;588;47006;-64
2021/06/03 10:43:36;;;;;;;6.80;2.33;;;;;;;26.98;32.88;101754.31;143723;567;47008;-63
2021/06/03 10:46:03;;;;;;;5.93;2.00;;;;;;;27.06;34.08;101754.56;143723;596;47006;-64
2021/06/03 10:48:30;;;;;;;3.12;2.53;;;;;;;27.00;33.70;101752.97;143723;588;47008;-63
2021/06/03 10:50:57;;;;;;;4.70;2.60;;;;;;;26.94;34.66;101749.38;143723;598;47002;-64
2021/06/03 10:53:26;;;;;;;4.37;2.20;;;;;;;26.93;34.49;101757.94;143722;570;47009;-65
2021/06/03 10:56:10;;;;;;;5.22;3.05;;;;;;;26.98;34.90;101749.66;143720;595;47006;-65
2021/06/03 10:58:38;;;;;;;3.20;2.15;;;;;;;26.92;34.21;101745.28;143722;605;47008;-65
2021/06/03 11:01:16;;;;;;;5.50;2.55;;;;;;;26.87;34.21;101745.28;143721;673;48002;-65
2021/06/03 11:03:55;;;;;;;2.72;2.00;;;;;;;26.92;34.70;101748.84;143722;647;47012;-64
2021/06/03 11:06:30;;;;;;;3.90;2.40;;;;;;;26.86;34.21;101743.66;143722;600;47004;-64
2021/06/03 11:09:07;;;;;;;3.65;2.03;;;;;;;26.88;34.83;101742.28;143724;584;47008;-65
2021/06/03 11:11:40;;;;;;;2.65;2.33;;;;;;;26.76;34.71;101742.56;143724;602;47004;-66
2021/06/03 11:14:14;;;;;;;3.85;2.90;;;;;;;26.62;34.38;101738.78;143723;571;47009;-64
2021/06/03 11:16:49;;;;;;;7.43;4.30;;;;;;;26.69;36.01;101725.50;143721;589;47004;-64
2021/06/03 11:19:18;;;;;;;3.65;2.30;;;;;;;26.72;35.11;101732.41;143721;582;47008;-65
2021/06/03 11:21:52;;;;;;;4.12;2.30;;;;;;;26.77;35.17;101719.41;143723;609;47004;-66
2021/06/03 11:24:53;;;;;;;4.35;2.28;;;;;;;26.77;33.67;101726.84;143722;598;47013;-64
2021/06/03 11:27:20;;;;;;;4.30;1.87;;;;;;;26.70;33.96;101721.66;143722;605;47006;-64
2021/06/03 11:30:05;;;;;;;2.42;2.05;;;;;;;26.52;34.02;101716.78;143724;585;47007;-64
2021/06/03 11:32:38;;;;;;;3.17;2.28;;;;;;;26.52;33.62;101720.38;143725;600;47004;-65
2021/06/03 11:35:08;;;;;;;9.80;2.00;;;;;;;26.58;33.22;101710.16;143721;593;47012;-66